createdAt,value
2023-02-27T00:01:01.902Z,5.90
2023-02-27T00:03:32.641Z,7.32
2023-02-27T00:06:00.171Z,12.00
2023-02-27T00:08:27.950Z,13.43
2023-02-27T00:10:55.493Z,11.25
2023-02-27T00:13:22.996Z,16.00
2023-02-27T00:15:51.272Z,9.60
2023-02-27T00:18:18.746Z,8.93
2023-02-27T00:20:46.244Z,9.98
2023-02-27T00:23:15.800Z,8.98
2023-02-27T00:25:43.141Z,10.48
2023-02-27T00:28:10.401Z,10.20
2023-02-27T00:30:37.659Z,15.13
2023-02-27T00:33:07.313Z,11.10
2023-02-27T00:35:34.547Z,18.05
2023-02-27T00:38:02.224Z,23.45
2023-02-27T00:40:29.500Z,22.83
2023-02-27T00:42:57.183Z,15.73
2023-02-27T00:45:24.563Z,8.23
2023-02-27T00:47:51.898Z,7.28
2023-02-27T00:50:19.367Z,8.30
2023-02-27T00:52:47.600Z,11.25
2023-02-27T00:55:15.817Z,8.65
2023-02-27T00:57:43.419Z,7.97
2023-02-27T01:00:11.710Z,14.80
2023-02-27T01:02:39.249Z,12.57
2023-02-27T01:05:06.798Z,14.65
2023-02-27T01:07:34.152Z,11.75
2023-02-27T01:10:02.636Z,11.27
2023-02-27T01:12:30.022Z,10.52
2023-02-27T01:14:57.245Z,16.63
2023-02-27T01:17:24.541Z,12.77
2023-02-27T01:19:51.923Z,14.95
2023-02-27T01:22:19.202Z,11.30
2023-02-27T01:24:46.434Z,10.55
2023-02-27T01:27:13.764Z,14.00
2023-02-27T01:29:41.054Z,11.23
2023-02-27T01:32:08.988Z,15.07
2023-02-27T01:34:36.441Z,14.00
2023-02-27T01:37:03.758Z,12.40
2023-02-27T01:39:32.926Z,9.50
2023-02-27T01:42:01.148Z,7.80
2023-02-27T01:44:30.217Z,6.93
2023-02-27T01:46:58.035Z,7.43
2023-02-27T01:49:27.426Z,7.63
2023-02-27T01:52:01.964Z,11.20
2023-02-27T01:54:30.497Z,9.02
2023-02-27T01:56:57.944Z,8.95
2023-02-27T01:59:25.364Z,8.35
2023-02-27T02:01:52.814Z,7.72
2023-02-27T02:04:20.101Z,6.45
2023-02-27T02:06:52.142Z,9.80
2023-02-27T02:09:19.972Z,11.18
2023-02-27T02:11:47.423Z,8.88
2023-02-27T02:14:15.894Z,9.07
2023-02-27T02:16:54.769Z,6.72
2023-02-27T02:19:40.933Z,9.32
2023-02-27T02:22:18.640Z,7.63
2023-02-27T02:25:07.003Z,9.00
2023-02-27T02:27:40.388Z,8.25
2023-02-27T02:30:24.562Z,8.15
2023-02-27T02:33:12.817Z,9.02
2023-02-27T02:35:40.070Z,7.10
2023-02-27T02:38:07.314Z,7.55
2023-02-27T02:40:47.430Z,8.52
2023-02-27T02:43:14.703Z,9.23
2023-02-27T02:45:50.858Z,10.15
2023-02-27T02:48:27.171Z,12.02
2023-02-27T02:50:57.467Z,9.05
2023-02-27T02:53:43.242Z,10.52
2023-02-27T02:56:29.216Z,8.48
2023-02-27T02:59:00.511Z,7.97
2023-02-27T03:01:32.800Z,10.20
2023-02-27T03:04:09.432Z,9.60
2023-02-27T03:06:39.744Z,7.38
2023-02-27T03:09:27.320Z,9.80
2023-02-27T03:11:57.675Z,6.60
2023-02-27T03:14:30.023Z,12.45
2023-02-27T03:17:00.196Z,8.07
2023-02-27T03:19:27.561Z,10.73
2023-02-27T03:21:54.799Z,8.88
2023-02-27T03:24:24.624Z,7.88
2023-02-27T03:26:52.702Z,10.55
2023-02-27T03:29:54.104Z,6.18
2023-02-27T03:32:28.588Z,11.02
2023-02-27T03:34:55.987Z,9.20
2023-02-27T03:37:41.995Z,9.15
2023-02-27T03:40:29.720Z,12.00
2023-02-27T03:43:02.878Z,8.50
2023-02-27T03:47:57.799Z,7.95
2023-02-27T03:50:25.182Z,16.60
2023-02-27T03:52:52.627Z,12.15
2023-02-27T03:55:25.504Z,11.18
2023-02-27T03:57:53.147Z,9.93
2023-02-27T04:00:24.771Z,11.30
2023-02-27T04:02:52.745Z,8.18
2023-02-27T04:05:21.070Z,11.88
2023-02-27T04:08:07.100Z,10.48
2023-02-27T04:11:00.743Z,9.38
2023-02-27T04:13:34.225Z,11.38
2023-02-27T04:16:20.724Z,12.45
2023-02-27T04:18:56.892Z,8.27
2023-02-27T04:21:24.486Z,9.23
2023-02-27T04:23:55.004Z,10.00
2023-02-27T04:26:25.642Z,9.57
2023-02-27T04:29:02.190Z,11.02
2023-02-27T04:31:33.342Z,8.73
2023-02-27T04:34:04.074Z,11.48
2023-02-27T04:36:39.747Z,11.80
2023-02-27T04:39:11.350Z,9.82
2023-02-27T04:41:41.802Z,9.00
2023-02-27T04:44:09.764Z,7.50
2023-02-27T04:46:38.525Z,9.65
2023-02-27T04:49:08.923Z,10.65
2023-02-27T04:51:40.699Z,12.25
2023-02-27T04:54:14.033Z,9.73
2023-02-27T04:56:55.996Z,11.73
2023-02-27T04:59:28.092Z,11.65
2023-02-27T05:02:08.057Z,8.70
2023-02-27T05:04:37.788Z,10.73
2023-02-27T05:07:06.855Z,9.27
2023-02-27T05:09:39.473Z,6.63
2023-02-27T05:12:11.886Z,11.77
2023-02-27T05:14:46.002Z,10.30
2023-02-27T05:17:16.543Z,11.38
2023-02-27T05:19:44.410Z,10.82
2023-02-27T05:22:14.712Z,19.15
2023-02-27T05:24:51.169Z,15.13
2023-02-27T05:27:28.636Z,17.95
2023-02-27T05:30:01.540Z,20.27
2023-02-27T05:32:47.032Z,40.00
2023-02-27T05:35:46.790Z,36.90
2023-02-27T05:38:14.185Z,32.13
2023-02-27T05:40:49.845Z,26.33
2023-02-27T05:43:17.174Z,21.35
2023-02-27T05:45:46.880Z,27.80
2023-02-27T05:48:19.866Z,21.98
2023-02-27T05:50:50.266Z,12.80
2023-02-27T05:53:19.270Z,12.63
2023-02-27T05:55:57.014Z,11.98
2023-02-27T05:58:27.440Z,10.30
2023-02-27T06:00:57.242Z,11.85
2023-02-27T06:03:24.695Z,11.98
2023-02-27T06:05:55.910Z,14.88
2023-02-27T06:08:23.955Z,10.10
2023-02-27T06:10:51.639Z,12.40
2023-02-27T06:13:19.334Z,15.55
2023-02-27T06:15:46.804Z,17.73
2023-02-27T06:18:15.241Z,47.60
2023-02-27T06:20:43.512Z,40.90
2023-02-27T06:23:34.373Z,44.50
2023-02-27T06:26:01.905Z,62.65
2023-02-27T06:28:29.304Z,44.22
2023-02-27T06:30:59.385Z,35.65
2023-02-27T06:33:26.697Z,24.70
2023-02-27T06:35:54.485Z,21.98
2023-02-27T06:38:29.267Z,18.40
2023-02-27T06:41:26.144Z,22.23
2023-02-27T06:43:59.239Z,18.75
2023-02-27T06:46:27.266Z,24.20
2023-02-27T06:48:54.971Z,22.63
2023-02-27T06:51:29.813Z,20.75
2023-02-27T06:53:57.718Z,14.73
2023-02-27T06:56:25.506Z,16.95
2023-02-27T06:58:52.969Z,22.75
2023-02-27T07:01:20.382Z,24.10
2023-02-27T07:03:47.813Z,23.05
2023-02-27T07:06:15.395Z,21.17
2023-02-27T07:09:01.406Z,20.80
2023-02-27T07:11:40.245Z,26.13
2023-02-27T07:14:11.975Z,30.42
2023-02-27T07:16:51.162Z,23.85
2023-02-27T07:19:18.713Z,21.25
2023-02-27T07:21:46.404Z,24.05
2023-02-27T07:24:13.709Z,22.23
2023-02-27T07:26:41.188Z,18.20
2023-02-27T07:29:09.952Z,19.88
2023-02-27T07:31:37.444Z,17.05
2023-02-27T07:34:04.822Z,23.40
2023-02-27T07:36:34.502Z,17.50
2023-02-27T07:39:03.958Z,18.17
2023-02-27T07:41:31.347Z,21.75
2023-02-27T07:43:58.830Z,16.65
2023-02-27T07:46:27.772Z,17.15
2023-02-27T07:48:55.670Z,21.83
2023-02-27T07:51:23.025Z,19.30
2023-02-27T07:53:50.249Z,16.58
2023-02-27T07:56:17.665Z,21.52
2023-02-27T07:59:02.352Z,15.75
2023-02-27T08:01:29.527Z,16.45
2023-02-27T08:03:56.832Z,15.43
2023-02-27T08:06:24.116Z,16.30
2023-02-27T08:08:51.873Z,16.30
2023-02-27T08:11:19.274Z,13.65
2023-02-27T08:14:02.954Z,15.32
2023-02-27T08:16:31.949Z,17.77
2023-02-27T08:18:59.598Z,20.67
2023-02-27T08:21:27.598Z,15.98
2023-02-27T08:23:57.859Z,16.73
2023-02-27T08:26:25.569Z,14.23
2023-02-27T08:28:53.996Z,14.50
2023-02-27T08:31:21.433Z,14.02
2023-02-27T08:33:55.281Z,14.57
2023-02-27T08:36:25.644Z,19.30
2023-02-27T08:38:53.082Z,13.07
2023-02-27T08:41:20.456Z,11.50
2023-02-27T08:43:47.689Z,9.02
2023-02-27T08:46:15.022Z,9.10
2023-02-27T08:48:42.804Z,9.32
2023-02-27T08:51:10.648Z,11.25
2023-02-27T08:53:38.107Z,11.23
2023-02-27T08:56:05.451Z,9.95
2023-02-27T08:58:33.047Z,9.32
2023-02-27T09:01:00.282Z,11.43
2023-02-27T09:03:28.918Z,8.23
2023-02-27T09:05:56.582Z,8.68
2023-02-27T09:08:24.054Z,10.02
2023-02-27T09:10:51.257Z,6.55
2023-02-27T09:13:18.445Z,9.07
2023-02-27T09:15:47.807Z,11.48
2023-02-27T09:18:16.111Z,10.75
2023-02-27T09:20:43.352Z,10.85
2023-02-27T09:23:10.780Z,13.32
2023-02-27T09:25:37.986Z,8.63
2023-02-27T09:28:05.256Z,10.40
2023-02-27T09:30:33.207Z,9.35
2023-02-27T09:33:00.442Z,8.55
2023-02-27T09:35:27.980Z,8.07
2023-02-27T09:37:57.584Z,6.53
2023-02-27T09:40:27.270Z,6.78
2023-02-27T09:42:58.054Z,9.40
2023-02-27T09:45:26.827Z,11.07
2023-02-27T09:47:56.888Z,7.60
2023-02-27T09:50:37.531Z,8.27
2023-02-27T09:53:06.811Z,15.05
2023-02-27T09:55:35.868Z,12.68
2023-02-27T09:58:07.722Z,9.13
2023-02-27T10:00:34.944Z,6.35
2023-02-27T10:03:19.591Z,15.02
2023-02-27T10:06:07.157Z,9.48
2023-02-27T10:08:44.448Z,11.48
2023-02-27T10:11:14.576Z,8.93
2023-02-27T10:13:41.745Z,13.10
2023-02-27T10:16:11.744Z,8.93
2023-02-27T10:18:41.906Z,9.15
2023-02-27T10:21:13.422Z,6.32
2023-02-27T10:23:58.604Z,7.57
2023-02-27T10:26:27.513Z,7.70
2023-02-27T10:28:56.996Z,7.65
2023-02-27T10:31:32.200Z,6.25
2023-02-27T10:34:00.635Z,5.30
2023-02-27T10:36:34.191Z,8.40
2023-02-27T10:39:06.300Z,7.38
2023-02-27T10:41:33.840Z,10.05
2023-02-27T10:44:01.346Z,6.20
2023-02-27T10:46:33.058Z,5.20
2023-02-27T10:49:10.913Z,8.55
2023-02-27T10:51:38.712Z,6.75
2023-02-27T10:54:12.287Z,7.20
2023-02-27T10:56:39.561Z,7.90
2023-02-27T10:59:07.940Z,8.73
2023-02-27T11:01:43.723Z,6.75
2023-02-27T11:04:12.273Z,4.50
2023-02-27T11:06:42.524Z,5.75
2023-02-27T11:09:12.742Z,4.28
2023-02-27T11:11:39.973Z,6.60
2023-02-27T11:14:27.959Z,10.05
2023-02-27T11:16:58.502Z,6.15
2023-02-27T11:19:25.702Z,4.72
2023-02-27T11:22:02.031Z,7.07
2023-02-27T11:24:29.328Z,5.13
2023-02-27T11:26:58.259Z,8.10
2023-02-27T11:29:26.373Z,6.50
2023-02-27T11:32:11.611Z,6.30
2023-02-27T11:34:40.299Z,6.70
2023-02-27T11:37:19.943Z,6.43
2023-02-27T11:40:16.640Z,5.30
2023-02-27T11:42:50.465Z,8.13
2023-02-27T11:46:19.033Z,5.85
2023-02-27T11:48:19.196Z,7.90
2023-02-27T11:50:52.101Z,4.15
2023-02-27T11:53:19.460Z,5.00
2023-02-27T11:55:47.807Z,4.35
2023-02-27T11:58:20.171Z,6.00
2023-02-27T12:00:52.784Z,6.20
2023-02-27T12:05:53.765Z,5.63
2023-02-27T12:08:42.174Z,3.97
2023-02-27T12:11:25.244Z,3.97
2023-02-27T12:13:55.212Z,5.70
2023-02-27T12:16:32.878Z,4.20
2023-02-27T12:19:00.553Z,3.85
2023-02-27T12:21:57.093Z,6.13
2023-02-27T12:24:26.494Z,3.72
2023-02-27T12:26:58.345Z,3.95
2023-02-27T12:29:25.433Z,3.08
2023-02-27T12:32:03.989Z,2.63
2023-02-27T12:34:41.744Z,6.53
2023-02-27T12:37:15.315Z,7.22
2023-02-27T12:39:43.820Z,8.48
2023-02-27T12:42:20.438Z,5.28
2023-02-27T12:45:06.443Z,6.32
2023-02-27T12:47:52.058Z,5.82
2023-02-27T12:50:20.264Z,5.30
2023-02-27T12:52:54.099Z,4.20
2023-02-27T12:55:21.544Z,4.78
2023-02-27T12:57:58.043Z,4.47
2023-02-27T13:00:30.224Z,4.40
2023-02-27T13:02:57.493Z,6.40
2023-02-27T13:05:24.705Z,3.75
2023-02-27T13:08:10.237Z,4.28
2023-02-27T13:10:43.946Z,5.00
2023-02-27T13:13:21.894Z,6.90
2023-02-27T13:15:52.520Z,3.65
2023-02-27T13:18:32.620Z,5.18
2023-02-27T13:20:59.808Z,5.57
2023-02-27T13:23:33.685Z,5.70
2023-02-27T13:26:02.030Z,4.97
2023-02-27T13:28:30.040Z,5.10
2023-02-27T13:30:57.186Z,4.13
2023-02-27T13:33:32.553Z,7.38
2023-02-27T13:36:05.856Z,5.18
2023-02-27T13:38:45.110Z,7.22
2023-02-27T13:41:21.422Z,7.10
2023-02-27T13:43:52.381Z,5.20
2023-02-27T13:46:32.917Z,5.05
2023-02-27T13:49:06.068Z,5.90
2023-02-27T13:51:36.204Z,4.65
2023-02-27T13:54:16.147Z,4.15
2023-02-27T13:56:57.536Z,5.47
2023-02-27T13:59:36.498Z,7.72
2023-02-27T14:02:12.820Z,3.50
2023-02-27T14:04:48.704Z,4.65
2023-02-27T14:07:21.508Z,4.97
2023-02-27T14:12:30.968Z,5.25
2023-02-27T14:15:24.682Z,5.55
2023-02-27T14:18:09.632Z,5.13
2023-02-27T14:20:39.704Z,5.07
2023-02-27T14:23:16.040Z,6.63
2023-02-27T14:25:46.285Z,3.38
2023-02-27T14:28:26.052Z,4.43
2023-02-27T14:31:03.381Z,3.88
2023-02-27T14:33:54.064Z,3.95
2023-02-27T14:36:24.223Z,5.85
2023-02-27T14:38:53.969Z,3.85
2023-02-27T14:41:27.599Z,3.40
2023-02-27T14:43:56.601Z,4.30
2023-02-27T14:46:30.086Z,8.38
2023-02-27T14:49:02.650Z,5.07
2023-02-27T14:51:34.198Z,3.83
2023-02-27T14:54:13.574Z,4.18
2023-02-27T14:57:09.001Z,4.20
2023-02-27T14:59:43.758Z,4.65
2023-02-27T15:02:27.991Z,2.95
2023-02-27T15:04:57.131Z,5.38
2023-02-27T15:07:26.800Z,7.25
2023-02-27T15:09:56.296Z,3.33
2023-02-27T15:12:25.193Z,5.03
2023-02-27T15:14:55.901Z,3.42
2023-02-27T15:17:37.141Z,4.40
2023-02-27T15:20:06.406Z,7.05
2023-02-27T15:22:40.073Z,6.13
2023-02-27T15:25:08.457Z,6.20
2023-02-27T15:27:37.534Z,4.93
2023-02-27T15:30:05.333Z,4.95
2023-02-27T15:32:50.857Z,4.28
2023-02-27T15:35:18.052Z,8.82
2023-02-27T15:38:06.093Z,8.82
2023-02-27T15:40:34.319Z,10.10
2023-02-27T15:43:01.955Z,5.25
2023-02-27T15:45:31.416Z,6.45
2023-02-27T15:47:58.675Z,11.32
2023-02-27T15:50:26.124Z,9.57
2023-02-27T15:52:55.495Z,7.43
2023-02-27T15:55:27.174Z,4.82
2023-02-27T15:58:02.673Z,7.47
2023-02-27T16:00:31.625Z,6.10
2023-02-27T16:02:59.486Z,7.53
2023-02-27T16:05:29.809Z,4.25
2023-02-27T16:07:57.051Z,4.00
2023-02-27T16:10:25.863Z,5.07
2023-02-27T16:12:53.114Z,5.90
2023-02-27T16:15:23.325Z,5.93
2023-02-27T16:17:56.858Z,4.75
2023-02-27T16:20:30.361Z,7.53
2023-02-27T16:23:16.266Z,6.00
2023-02-27T16:25:47.567Z,4.07
2023-02-27T16:28:15.761Z,8.88
2023-02-27T16:30:43.111Z,6.40
2023-02-27T16:33:15.926Z,6.93
2023-02-27T16:35:43.286Z,4.22
2023-02-27T16:38:12.007Z,4.05
2023-02-27T16:40:39.272Z,3.97
2023-02-27T16:43:06.601Z,5.43
2023-02-27T16:45:33.900Z,4.18
2023-02-27T16:48:01.720Z,4.93
2023-02-27T16:50:31.206Z,4.88
2023-02-27T16:52:58.537Z,5.32
2023-02-27T16:55:26.513Z,6.30
2023-02-27T16:57:53.707Z,4.88
2023-02-27T17:00:22.716Z,8.73
2023-02-27T17:02:50.164Z,5.57
2023-02-27T17:05:18.064Z,3.53
2023-02-27T17:07:45.325Z,3.67
2023-02-27T17:10:16.598Z,6.95
2023-02-27T17:12:44.191Z,8.43
2023-02-27T17:15:11.657Z,2.50
2023-02-27T17:17:38.935Z,5.35
2023-02-27T17:20:10.147Z,6.15
2023-02-27T17:22:41.872Z,7.75
2023-02-27T17:25:10.242Z,9.75
2023-02-27T17:27:37.711Z,8.63
2023-02-27T17:30:05.760Z,8.52
2023-02-27T17:32:34.648Z,10.00
2023-02-27T17:35:01.891Z,8.32
2023-02-27T17:37:29.079Z,10.07
2023-02-27T17:39:56.426Z,6.90
2023-02-27T17:42:25.842Z,4.93
2023-02-27T17:44:53.216Z,8.18
2023-02-27T17:47:20.446Z,7.78
2023-02-27T17:49:47.925Z,8.65
2023-02-27T17:52:15.552Z,4.68
2023-02-27T17:54:43.036Z,8.45
2023-02-27T17:57:12.140Z,9.70
2023-02-27T17:59:40.400Z,4.47
2023-02-27T18:02:08.160Z,7.30
2023-02-27T18:04:35.765Z,10.32
2023-02-27T18:07:03.046Z,8.32
2023-02-27T18:09:30.369Z,9.85
2023-02-27T18:11:58.114Z,8.35
2023-02-27T18:14:25.881Z,6.75
2023-02-27T18:16:53.307Z,8.85
2023-02-27T18:19:20.621Z,11.65
2023-02-27T18:21:50.491Z,11.98
2023-02-27T18:24:19.345Z,15.73
2023-02-27T18:26:46.680Z,13.48
2023-02-27T18:29:14.156Z,5.82
2023-02-27T18:31:42.973Z,12.15
2023-02-27T18:34:10.920Z,15.45
2023-02-27T18:36:38.480Z,9.25
2023-02-27T18:39:06.529Z,9.50
2023-02-27T18:41:33.906Z,10.75
2023-02-27T18:44:01.228Z,10.70
2023-02-27T18:46:29.323Z,12.85
2023-02-27T18:48:57.268Z,10.05
2023-02-27T18:51:24.877Z,11.48
2023-02-27T18:53:52.137Z,12.82
2023-02-27T18:56:21.019Z,16.23
2023-02-27T18:58:48.916Z,11.07
2023-02-27T19:01:20.501Z,10.18
2023-02-27T19:03:47.803Z,9.95
2023-02-27T19:06:15.220Z,12.23
2023-02-27T19:08:42.683Z,14.77
2023-02-27T19:11:10.104Z,16.45
2023-02-27T19:13:37.450Z,9.75
2023-02-27T19:16:05.020Z,12.27
2023-02-27T19:18:32.422Z,15.35
2023-02-27T19:21:04.181Z,15.32
2023-02-27T19:23:31.826Z,11.32
2023-02-27T19:26:00.238Z,13.25
2023-02-27T19:28:27.545Z,13.55
2023-02-27T19:30:55.077Z,16.50
2023-02-27T19:33:22.357Z,16.10
2023-02-27T19:35:49.670Z,15.25
2023-02-27T19:38:17.339Z,20.40
2023-02-27T19:40:44.729Z,16.85
2023-02-27T19:43:15.350Z,17.90
2023-02-27T19:45:42.800Z,15.30
2023-02-27T19:48:11.480Z,19.33
2023-02-27T19:50:40.568Z,14.85
2023-02-27T19:53:08.326Z,15.48
2023-02-27T19:55:35.624Z,16.77
2023-02-27T19:58:02.957Z,18.15
2023-02-27T20:00:30.882Z,19.92
2023-02-27T20:02:58.289Z,16.52
2023-02-27T20:05:25.870Z,14.68
2023-02-27T20:07:53.790Z,14.73
2023-02-27T20:10:21.207Z,16.75
2023-02-27T20:12:48.679Z,21.48
2023-02-27T20:15:16.439Z,18.05
2023-02-27T20:17:43.984Z,24.30
2023-02-27T20:20:16.237Z,17.48
2023-02-27T20:22:47.069Z,18.07
2023-02-27T20:25:14.727Z,20.33
2023-02-27T20:27:42.301Z,19.20
2023-02-27T20:30:12.911Z,14.05
2023-02-27T20:32:40.504Z,15.73
2023-02-27T20:35:08.687Z,15.45
2023-02-27T20:37:36.353Z,12.32
2023-02-27T20:40:04.716Z,15.82
2023-02-27T20:42:32.166Z,14.35
2023-02-27T20:44:59.619Z,13.35
2023-02-27T20:47:32.821Z,35.55
2023-02-27T20:59:06.108Z,19.73
2023-02-27T21:01:33.833Z,24.55
2023-02-27T21:04:01.864Z,22.27
2023-02-27T21:06:30.857Z,42.80
2023-02-27T21:14:29.133Z,53.58
2023-02-27T21:16:56.497Z,42.17
2023-02-27T21:19:24.306Z,40.88
2023-02-27T21:21:51.657Z,37.55
2023-02-27T21:24:19.056Z,24.60
2023-02-27T21:26:46.522Z,33.90
2023-02-27T21:29:15.815Z,38.97
2023-02-27T21:31:49.074Z,24.65
2023-02-27T21:34:18.612Z,24.80
2023-02-27T21:36:46.764Z,26.67
2023-02-27T21:39:19.116Z,33.70
2023-02-27T21:41:46.672Z,21.90
2023-02-27T21:44:15.383Z,15.85
2023-02-27T21:46:43.057Z,17.58
2023-02-27T21:49:16.156Z,19.27
2023-02-27T21:51:46.658Z,20.15
2023-02-27T21:54:16.690Z,26.40
2023-02-27T21:57:22.912Z,16.67
2023-02-27T22:58:20.184Z,16.20
2023-02-27T23:00:54.280Z,16.42
2023-02-27T23:03:22.232Z,17.50
2023-02-27T23:05:52.992Z,13.75
2023-02-27T23:08:20.903Z,14.65
2023-02-27T23:10:48.602Z,19.02
2023-02-27T23:13:16.161Z,17.60
2023-02-27T23:15:43.513Z,17.08
2023-02-27T23:18:10.872Z,15.20
2023-02-27T23:20:38.415Z,15.25
2023-02-27T23:23:09.296Z,17.27
2023-02-27T23:25:37.940Z,20.58
2023-02-27T23:28:08.245Z,14.20
2023-02-27T23:30:35.740Z,17.55
2023-02-27T23:33:03.035Z,13.68
2023-02-27T23:35:30.460Z,16.92
2023-02-27T23:37:59.310Z,17.27
2023-02-27T23:40:28.024Z,19.77
2023-02-27T23:43:14.461Z,14.40
2023-02-27T23:45:42.444Z,15.65
2023-02-27T23:48:10.195Z,19.77
2023-02-27T23:50:43.921Z,17.10
2023-02-27T23:53:13.132Z,13.93
2023-02-27T23:55:42.208Z,21.42
2023-02-27T23:58:10.766Z,15.07
